sensor_id;sensor_type;location;lat;lon;timestamp;P1;durP1;ratioP1;P2;durP2;ratioP2
12302;SDS011;6214;48.012;7.862;2022-08-19T00:05:02;7.50;;;6.80;;
12302;SDS011;6214;48.012;7.862;2022-08-19T00:07:30;8.75;;;7.63;;
12302;SDS011;6214;48.012;7.862;2022-08-19T00:09:57;8.05;;;7.25;;
12302;SDS011;6214;48.012;7.862;2022-08-19T00:12:24;8.40;;;7.50;;
12302;SDS011;6214;48.012;7.862;2022-08-19T00:14:51;8.27;;;7.47;;
12302;SDS011;6214;48.012;7.862;2022-08-19T00:17:20;8.53;;;7.60;;
12302;SDS011;6214;48.012;7.862;2022-08-19T00:19:47;8.23;;;7.43;;
12302;SDS011;6214;48.012;7.862;2022-08-19T00:22:14;9.02;;;7.70;;
12302;SDS011;6214;48.012;7.862;2022-08-19T00:24:43;8.23;;;7.43;;
12302;SDS011;6214;48.012;7.862;2022-08-19T00:27:16;8.13;;;7.32;;
12302;SDS011;6214;48.012;7.862;2022-08-19T00:29:51;10.33;;;7.60;;
12302;SDS011;6214;48.012;7.862;2022-08-19T00:32:19;8.88;;;7.97;;
12302;SDS011;6214;48.012;7.862;2022-08-19T00:34:46;8.48;;;7.60;;
12302;SDS011;6214;48.012;7.862;2022-08-19T00:37:13;9.70;;;7.70;;
12302;SDS011;6214;48.012;7.862;2022-08-19T00:39:40;10.15;;;9.15;;
12302;SDS011;6214;48.012;7.862;2022-08-19T00:42:07;9.73;;;8.73;;
12302;SDS011;6214;48.012;7.862;2022-08-19T00:44:33;10.40;;;8.13;;
12302;SDS011;6214;48.012;7.862;2022-08-19T00:47:01;9.52;;;8.52;;
12302;SDS011;6214;48.012;7.862;2022-08-19T00:49:33;10.98;;;8.80;;
12302;SDS011;6214;48.012;7.862;2022-08-19T00:52:14;8.60;;;7.70;;
12302;SDS011;6214;48.012;7.862;2022-08-19T00:54:43;9.00;;;8.10;;
12302;SDS011;6214;48.012;7.862;2022-08-19T00:57:18;9.30;;;8.30;;
12302;SDS011;6214;48.012;7.862;2022-08-19T00:59:50;10.40;;;7.97;;
12302;SDS011;6214;48.012;7.862;2022-08-19T01:02:28;8.00;;;7.20;;
12302;SDS011;6214;48.012;7.862;2022-08-19T01:04:56;8.65;;;7.78;;
12302;SDS011;6214;48.012;7.862;2022-08-19T01:07:23;8.75;;;7.85;;
12302;SDS011;6214;48.012;7.862;2022-08-19T01:09:50;10.18;;;7.95;;
12302;SDS011;6214;48.012;7.862;2022-08-19T01:12:18;9.70;;;8.10;;
12302;SDS011;6214;48.012;7.862;2022-08-19T01:14:45;8.90;;;8.00;;
12302;SDS011;6214;48.012;7.862;2022-08-19T01:17:13;9.10;;;8.10;;
12302;SDS011;6214;48.012;7.862;2022-08-19T01:19:42;8.90;;;8.02;;
12302;SDS011;6214;48.012;7.862;2022-08-19T01:24:42;8.55;;;7.65;;
12302;SDS011;6214;48.012;7.862;2022-08-19T01:27:15;8.48;;;7.68;;
12302;SDS011;6214;48.012;7.862;2022-08-19T01:29:43;8.80;;;8.00;;
12302;SDS011;6214;48.012;7.862;2022-08-19T01:32:13;8.65;;;7.85;;
12302;SDS011;6214;48.012;7.862;2022-08-19T01:34:59;8.70;;;7.80;;
12302;SDS011;6214;48.012;7.862;2022-08-19T01:37:27;8.80;;;8.00;;
12302;SDS011;6214;48.012;7.862;2022-08-19T01:39:55;8.55;;;7.38;;
12302;SDS011;6214;48.012;7.862;2022-08-19T01:42:23;8.77;;;7.80;;
12302;SDS011;6214;48.012;7.862;2022-08-19T01:44:55;9.40;;;8.30;;
12302;SDS011;6214;48.012;7.862;2022-08-19T01:47:22;8.60;;;7.80;;
12302;SDS011;6214;48.012;7.862;2022-08-19T01:49:49;8.90;;;8.00;;
12302;SDS011;6214;48.012;7.862;2022-08-19T01:52:16;9.25;;;8.35;;
12302;SDS011;6214;48.012;7.862;2022-08-19T01:54:43;9.48;;;8.57;;
12302;SDS011;6214;48.012;7.862;2022-08-19T01:57:10;9.43;;;7.90;;
12302;SDS011;6214;48.012;7.862;2022-08-19T01:59:41;8.80;;;8.00;;
12302;SDS011;6214;48.012;7.862;2022-08-19T02:02:09;9.30;;;8.40;;
12302;SDS011;6214;48.012;7.862;2022-08-19T02:04:36;9.52;;;8.52;;
12302;SDS011;6214;48.012;7.862;2022-08-19T02:07:05;9.32;;;8.32;;
12302;SDS011;6214;48.012;7.862;2022-08-19T02:09:34;9.25;;;8.40;;
12302;SDS011;6214;48.012;7.862;2022-08-19T02:12:02;9.05;;;8.15;;
12302;SDS011;6214;48.012;7.862;2022-08-19T02:14:30;8.90;;;8.00;;
12302;SDS011;6214;48.012;7.862;2022-08-19T02:16:57;8.68;;;7.88;;
12302;SDS011;6214;48.012;7.862;2022-08-19T02:19:24;10.20;;;9.10;;
12302;SDS011;6214;48.012;7.862;2022-08-19T02:21:50;11.00;;;8.98;;
12302;SDS011;6214;48.012;7.862;2022-08-19T02:24:17;10.90;;;9.05;;
12302;SDS011;6214;48.012;7.862;2022-08-19T02:26:44;10.43;;;9.40;;
12302;SDS011;6214;48.012;7.862;2022-08-19T02:29:11;10.68;;;8.57;;
12302;SDS011;6214;48.012;7.862;2022-08-19T02:31:38;9.43;;;8.52;;
12302;SDS011;6214;48.012;7.862;2022-08-19T02:34:05;9.30;;;8.40;;
12302;SDS011;6214;48.012;7.862;2022-08-19T02:36:32;10.30;;;9.20;;
12302;SDS011;6214;48.012;7.862;2022-08-19T02:38:59;9.60;;;8.60;;
12302;SDS011;6214;48.012;7.862;2022-08-19T02:41:30;9.40;;;8.50;;
12302;SDS011;6214;48.012;7.862;2022-08-19T02:44:00;9.60;;;8.70;;
12302;SDS011;6214;48.012;7.862;2022-08-19T02:46:50;9.65;;;8.75;;
12302;SDS011;6214;48.012;7.862;2022-08-19T02:49:18;9.55;;;8.65;;
12302;SDS011;6214;48.012;7.862;2022-08-19T02:51:46;10.25;;;9.25;;
12302;SDS011;6214;48.012;7.862;2022-08-19T02:54:13;9.55;;;8.65;;
12302;SDS011;6214;48.012;7.862;2022-08-19T02:56:41;9.52;;;8.63;;
12302;SDS011;6214;48.012;7.862;2022-08-19T02:59:09;9.57;;;8.57;;
12302;SDS011;6214;48.012;7.862;2022-08-19T03:01:38;9.80;;;8.80;;
12302;SDS011;6214;48.012;7.862;2022-08-19T03:04:07;9.77;;;8.77;;
12302;SDS011;6214;48.012;7.862;2022-08-19T03:06:36;10.13;;;9.13;;
12302;SDS011;6214;48.012;7.862;2022-08-19T03:09:04;9.70;;;8.80;;
12302;SDS011;6214;48.012;7.862;2022-08-19T03:11:32;9.43;;;8.43;;
12302;SDS011;6214;48.012;7.862;2022-08-19T03:13:59;10.00;;;8.90;;
12302;SDS011;6214;48.012;7.862;2022-08-19T03:16:28;9.93;;;8.93;;
12302;SDS011;6214;48.012;7.862;2022-08-19T03:18:59;9.43;;;8.40;;
12302;SDS011;6214;48.012;7.862;2022-08-19T03:21:28;9.52;;;8.52;;
12302;SDS011;6214;48.012;7.862;2022-08-19T03:23:59;10.27;;;9.20;;
12302;SDS011;6214;48.012;7.862;2022-08-19T03:26:28;10.15;;;9.15;;
12302;SDS011;6214;48.012;7.862;2022-08-19T03:28:56;10.02;;;9.02;;
12302;SDS011;6214;48.012;7.862;2022-08-19T03:31:25;10.47;;;9.40;;
12302;SDS011;6214;48.012;7.862;2022-08-19T03:34:14;10.25;;;9.25;;
12302;SDS011;6214;48.012;7.862;2022-08-19T03:36:55;9.98;;;9.07;;
12302;SDS011;6214;48.012;7.862;2022-08-19T03:39:25;11.00;;;9.90;;
12302;SDS011;6214;48.012;7.862;2022-08-19T03:41:53;10.18;;;9.18;;
12302;SDS011;6214;48.012;7.862;2022-08-19T03:44:43;10.43;;;9.43;;
12302;SDS011;6214;48.012;7.862;2022-08-19T03:47:11;10.52;;;9.52;;
12302;SDS011;6214;48.012;7.862;2022-08-19T03:49:42;10.37;;;9.47;;
12302;SDS011;6214;48.012;7.862;2022-08-19T03:52:09;10.30;;;9.30;;
12302;SDS011;6214;48.012;7.862;2022-08-19T03:54:36;11.00;;;9.85;;
12302;SDS011;6214;48.012;7.862;2022-08-19T03:57:04;10.65;;;9.65;;
12302;SDS011;6214;48.012;7.862;2022-08-19T03:59:32;10.77;;;9.65;;
12302;SDS011;6214;48.012;7.862;2022-08-19T04:02:03;10.43;;;9.40;;
12302;SDS011;6214;48.012;7.862;2022-08-19T04:04:36;10.70;;;9.70;;
12302;SDS011;6214;48.012;7.862;2022-08-19T04:07:04;11.15;;;10.13;;
12302;SDS011;6214;48.012;7.862;2022-08-19T04:09:33;11.23;;;10.20;;
12302;SDS011;6214;48.012;7.862;2022-08-19T04:12:00;10.50;;;9.57;;
12302;SDS011;6214;48.012;7.862;2022-08-19T04:14:28;11.18;;;10.05;;
12302;SDS011;6214;48.012;7.862;2022-08-19T04:17:00;10.30;;;9.35;;
12302;SDS011;6214;48.012;7.862;2022-08-19T04:19:31;10.52;;;9.43;;
12302;SDS011;6214;48.012;7.862;2022-08-19T04:21:59;10.60;;;9.60;;
12302;SDS011;6214;48.012;7.862;2022-08-19T04:24:26;10.80;;;9.70;;
12302;SDS011;6214;48.012;7.862;2022-08-19T04:26:53;11.70;;;10.50;;
12302;SDS011;6214;48.012;7.862;2022-08-19T04:29:22;11.07;;;9.98;;
12302;SDS011;6214;48.012;7.862;2022-08-19T04:31:52;11.07;;;10.07;;
12302;SDS011;6214;48.012;7.862;2022-08-19T04:34:22;11.60;;;10.40;;
12302;SDS011;6214;48.012;7.862;2022-08-19T04:36:54;11.27;;;10.18;;
12302;SDS011;6214;48.012;7.862;2022-08-19T04:39:25;12.30;;;11.20;;
12302;SDS011;6214;48.012;7.862;2022-08-19T04:42:15;12.77;;;11.57;;
12302;SDS011;6214;48.012;7.862;2022-08-19T04:45:02;12.60;;;11.40;;
12302;SDS011;6214;48.012;7.862;2022-08-19T04:47:35;12.80;;;11.50;;
12302;SDS011;6214;48.012;7.862;2022-08-19T04:50:23;12.18;;;11.07;;
12302;SDS011;6214;48.012;7.862;2022-08-19T04:52:52;12.15;;;10.95;;
12302;SDS011;6214;48.012;7.862;2022-08-19T04:55:19;12.38;;;11.27;;
12302;SDS011;6214;48.012;7.862;2022-08-19T04:57:46;12.25;;;10.95;;
12302;SDS011;6214;48.012;7.862;2022-08-19T05:00:14;12.10;;;11.00;;
12302;SDS011;6214;48.012;7.862;2022-08-19T05:02:41;12.30;;;11.20;;
12302;SDS011;6214;48.012;7.862;2022-08-19T05:05:08;12.10;;;10.90;;
12302;SDS011;6214;48.012;7.862;2022-08-19T05:07:35;12.73;;;11.63;;
12302;SDS011;6214;48.012;7.862;2022-08-19T05:10:03;12.30;;;11.18;;
12302;SDS011;6214;48.012;7.862;2022-08-19T05:12:31;12.73;;;11.53;;
12302;SDS011;6214;48.012;7.862;2022-08-19T05:14:59;12.13;;;10.93;;
12302;SDS011;6214;48.012;7.862;2022-08-19T05:17:27;12.45;;;11.05;;
12302;SDS011;6214;48.012;7.862;2022-08-19T05:20:01;12.40;;;11.20;;
12302;SDS011;6214;48.012;7.862;2022-08-19T05:22:48;12.40;;;11.30;;
12302;SDS011;6214;48.012;7.862;2022-08-19T05:25:17;12.70;;;11.50;;
12302;SDS011;6214;48.012;7.862;2022-08-19T05:27:46;12.95;;;11.75;;
12302;SDS011;6214;48.012;7.862;2022-08-19T05:30:14;11.88;;;10.77;;
12302;SDS011;6214;48.012;7.862;2022-08-19T05:32:42;11.27;;;10.18;;
12302;SDS011;6214;48.012;7.862;2022-08-19T05:35:09;12.52;;;11.32;;
12302;SDS011;6214;48.012;7.862;2022-08-19T05:37:37;12.35;;;11.25;;
12302;SDS011;6214;48.012;7.862;2022-08-19T05:40:07;12.05;;;10.85;;
12302;SDS011;6214;48.012;7.862;2022-08-19T05:42:35;11.10;;;10.10;;
12302;SDS011;6214;48.012;7.862;2022-08-19T05:45:02;11.20;;;10.20;;
12302;SDS011;6214;48.012;7.862;2022-08-19T05:47:30;12.10;;;10.90;;
12302;SDS011;6214;48.012;7.862;2022-08-19T05:49:58;12.80;;;11.60;;
12302;SDS011;6214;48.012;7.862;2022-08-19T05:52:25;12.70;;;11.55;;
12302;SDS011;6214;48.012;7.862;2022-08-19T05:54:53;12.13;;;11.02;;
12302;SDS011;6214;48.012;7.862;2022-08-19T05:57:23;12.07;;;10.88;;
12302;SDS011;6214;48.012;7.862;2022-08-19T05:59:50;11.80;;;10.60;;
12302;SDS011;6214;48.012;7.862;2022-08-19T06:02:27;11.18;;;10.10;;
12302;SDS011;6214;48.012;7.862;2022-08-19T06:04:57;11.50;;;10.20;;
12302;SDS011;6214;48.012;7.862;2022-08-19T06:07:24;11.05;;;10.05;;
12302;SDS011;6214;48.012;7.862;2022-08-19T06:09:51;11.00;;;9.90;;
12302;SDS011;6214;48.012;7.862;2022-08-19T06:12:27;11.35;;;10.25;;
12302;SDS011;6214;48.012;7.862;2022-08-19T06:14:58;10.80;;;9.80;;
12302;SDS011;6214;48.012;7.862;2022-08-19T06:17:31;11.60;;;10.40;;
12302;SDS011;6214;48.012;7.862;2022-08-19T06:20:05;11.90;;;10.80;;
12302;SDS011;6214;48.012;7.862;2022-08-19T06:22:38;11.38;;;10.27;;
12302;SDS011;6214;48.012;7.862;2022-08-19T06:25:10;11.23;;;10.13;;
12302;SDS011;6214;48.012;7.862;2022-08-19T06:27:38;11.60;;;10.50;;
12302;SDS011;6214;48.012;7.862;2022-08-19T06:30:26;10.70;;;9.70;;
12302;SDS011;6214;48.012;7.862;2022-08-19T06:32:53;11.00;;;9.80;;
12302;SDS011;6214;48.012;7.862;2022-08-19T06:35:20;10.60;;;9.60;;
12302;SDS011;6214;48.012;7.862;2022-08-19T06:37:47;11.20;;;10.10;;
12302;SDS011;6214;48.012;7.862;2022-08-19T06:40:14;11.18;;;10.10;;
12302;SDS011;6214;48.012;7.862;2022-08-19T06:42:41;11.63;;;10.43;;
12302;SDS011;6214;48.012;7.862;2022-08-19T06:45:21;11.68;;;10.48;;
12302;SDS011;6214;48.012;7.862;2022-08-19T06:47:50;10.97;;;9.97;;
12302;SDS011;6214;48.012;7.862;2022-08-19T06:50:25;11.68;;;10.48;;
12302;SDS011;6214;48.012;7.862;2022-08-19T06:52:52;11.30;;;10.30;;
12302;SDS011;6214;48.012;7.862;2022-08-19T06:55:20;11.60;;;10.50;;
12302;SDS011;6214;48.012;7.862;2022-08-19T06:57:47;11.98;;;10.88;;
12302;SDS011;6214;48.012;7.862;2022-08-19T07:00:17;12.35;;;11.20;;
12302;SDS011;6214;48.012;7.862;2022-08-19T07:02:44;11.93;;;10.82;;
12302;SDS011;6214;48.012;7.862;2022-08-19T07:05:22;12.15;;;10.95;;
12302;SDS011;6214;48.012;7.862;2022-08-19T07:07:49;11.60;;;10.50;;
12302;SDS011;6214;48.012;7.862;2022-08-19T07:10:16;11.18;;;10.18;;
12302;SDS011;6214;48.012;7.862;2022-08-19T07:12:44;12.00;;;10.90;;
12302;SDS011;6214;48.012;7.862;2022-08-19T07:15:11;12.67;;;11.47;;
12302;SDS011;6214;48.012;7.862;2022-08-19T07:17:38;12.05;;;10.77;;
12302;SDS011;6214;48.012;7.862;2022-08-19T07:20:07;11.30;;;10.30;;
12302;SDS011;6214;48.012;7.862;2022-08-19T07:22:36;10.80;;;9.80;;
12302;SDS011;6214;48.012;7.862;2022-08-19T07:25:05;10.43;;;9.43;;
12302;SDS011;6214;48.012;7.862;2022-08-19T07:27:33;11.30;;;10.20;;
12302;SDS011;6214;48.012;7.862;2022-08-19T07:30:01;11.93;;;10.73;;
12302;SDS011;6214;48.012;7.862;2022-08-19T07:32:29;11.43;;;10.32;;
12302;SDS011;6214;48.012;7.862;2022-08-19T07:34:58;11.97;;;10.87;;
12302;SDS011;6214;48.012;7.862;2022-08-19T07:37:27;11.00;;;9.90;;
12302;SDS011;6214;48.012;7.862;2022-08-19T07:39:59;11.10;;;9.80;;
12302;SDS011;6214;48.012;7.862;2022-08-19T07:42:27;11.82;;;10.73;;
12302;SDS011;6214;48.012;7.862;2022-08-19T07:44:56;11.13;;;10.02;;
12302;SDS011;6214;48.012;7.862;2022-08-19T07:47:24;11.20;;;10.10;;
12302;SDS011;6214;48.012;7.862;2022-08-19T07:50:11;12.40;;;11.20;;
12302;SDS011;6214;48.012;7.862;2022-08-19T07:52:38;12.60;;;11.50;;
12302;SDS011;6214;48.012;7.862;2022-08-19T07:55:07;12.00;;;10.90;;
12302;SDS011;6214;48.012;7.862;2022-08-19T07:57:55;12.82;;;11.63;;
12302;SDS011;6214;48.012;7.862;2022-08-19T08:00:22;13.20;;;11.90;;
12302;SDS011;6214;48.012;7.862;2022-08-19T08:02:50;13.25;;;12.05;;
12302;SDS011;6214;48.012;7.862;2022-08-19T08:05:21;13.77;;;12.48;;
12302;SDS011;6214;48.012;7.862;2022-08-19T08:08:10;13.50;;;12.20;;
12302;SDS011;6214;48.012;7.862;2022-08-19T08:10:59;13.40;;;12.10;;
12302;SDS011;6214;48.012;7.862;2022-08-19T08:13:27;13.40;;;12.20;;
12302;SDS011;6214;48.012;7.862;2022-08-19T08:15:54;14.00;;;12.73;;
12302;SDS011;6214;48.012;7.862;2022-08-19T08:18:23;14.70;;;13.30;;
12302;SDS011;6214;48.012;7.862;2022-08-19T08:20:56;14.27;;;12.98;;
12302;SDS011;6214;48.012;7.862;2022-08-19T08:23:24;15.82;;;14.32;;
12302;SDS011;6214;48.012;7.862;2022-08-19T08:25:53;14.77;;;13.38;;
12302;SDS011;6214;48.012;7.862;2022-08-19T08:28:23;15.68;;;14.27;;
12302;SDS011;6214;48.012;7.862;2022-08-19T08:30:55;15.05;;;13.70;;
12302;SDS011;6214;48.012;7.862;2022-08-19T08:33:23;16.33;;;14.82;;
12302;SDS011;6214;48.012;7.862;2022-08-19T08:36:01;14.80;;;13.50;;
12302;SDS011;6214;48.012;7.862;2022-08-19T08:38:31;15.88;;;14.38;;
12302;SDS011;6214;48.012;7.862;2022-08-19T08:41:07;16.55;;;15.05;;
12302;SDS011;6214;48.012;7.862;2022-08-19T08:43:56;16.13;;;14.73;;
12302;SDS011;6214;48.012;7.862;2022-08-19T08:46:35;16.38;;;14.90;;
12302;SDS011;6214;48.012;7.862;2022-08-19T08:49:24;17.35;;;15.75;;
12302;SDS011;6214;48.012;7.862;2022-08-19T08:52:05;16.30;;;14.80;;
12302;SDS011;6214;48.012;7.862;2022-08-19T08:54:37;16.73;;;15.23;;
12302;SDS011;6214;48.012;7.862;2022-08-19T08:57:26;17.20;;;15.70;;
12302;SDS011;6214;48.012;7.862;2022-08-19T09:00:04;16.70;;;15.18;;
12302;SDS011;6214;48.012;7.862;2022-08-19T09:02:41;16.67;;;15.27;;
12302;SDS011;6214;48.012;7.862;2022-08-19T09:05:09;18.92;;;17.27;;
12302;SDS011;6214;48.012;7.862;2022-08-19T09:08:05;18.80;;;17.20;;
12302;SDS011;6214;48.012;7.862;2022-08-19T09:10:39;18.50;;;16.70;;
12302;SDS011;6214;48.012;7.862;2022-08-19T09:18:40;18.55;;;16.75;;
12302;SDS011;6214;48.012;7.862;2022-08-19T09:21:19;19.30;;;17.60;;
12302;SDS011;6214;48.012;7.862;2022-08-19T09:23:58;19.53;;;17.83;;
12302;SDS011;6214;48.012;7.862;2022-08-19T09:26:27;17.70;;;16.00;;
12302;SDS011;6214;48.012;7.862;2022-08-19T09:29:13;18.95;;;17.25;;
12302;SDS011;6214;48.012;7.862;2022-08-19T09:31:40;19.48;;;17.77;;
12302;SDS011;6214;48.012;7.862;2022-08-19T09:34:07;19.05;;;17.25;;
12302;SDS011;6214;48.012;7.862;2022-08-19T09:36:47;19.40;;;17.60;;
12302;SDS011;6214;48.012;7.862;2022-08-19T09:39:20;19.83;;;18.02;;
12302;SDS011;6214;48.012;7.862;2022-08-19T09:41:47;19.60;;;17.80;;
12302;SDS011;6214;48.012;7.862;2022-08-19T09:44:16;18.70;;;17.10;;
12302;SDS011;6214;48.012;7.862;2022-08-19T09:46:44;18.83;;;17.13;;
12302;SDS011;6214;48.012;7.862;2022-08-19T09:49:14;19.02;;;17.23;;
12302;SDS011;6214;48.012;7.862;2022-08-19T09:51:44;18.42;;;16.73;;
12302;SDS011;6214;48.012;7.862;2022-08-19T09:54:17;18.00;;;16.40;;
12302;SDS011;6214;48.012;7.862;2022-08-19T09:56:51;17.77;;;16.07;;
12302;SDS011;6214;48.012;7.862;2022-08-19T09:59:21;18.42;;;16.80;;
12302;SDS011;6214;48.012;7.862;2022-08-19T10:01:49;16.75;;;15.25;;
12302;SDS011;6214;48.012;7.862;2022-08-19T10:04:17;17.45;;;15.95;;
12302;SDS011;6214;48.012;7.862;2022-08-19T10:06:48;17.77;;;16.17;;
12302;SDS011;6214;48.012;7.862;2022-08-19T10:09:20;17.33;;;15.82;;
12302;SDS011;6214;48.012;7.862;2022-08-19T10:11:59;17.52;;;15.75;;
12302;SDS011;6214;48.012;7.862;2022-08-19T10:14:28;17.88;;;16.20;;
12302;SDS011;6214;48.012;7.862;2022-08-19T10:16:56;18.00;;;16.20;;
12302;SDS011;6214;48.012;7.862;2022-08-19T10:19:24;17.63;;;16.10;;
12302;SDS011;6214;48.012;7.862;2022-08-19T10:21:55;17.77;;;16.15;;
12302;SDS011;6214;48.012;7.862;2022-08-19T10:24:26;17.17;;;15.63;;
12302;SDS011;6214;48.012;7.862;2022-08-19T10:26:54;17.95;;;16.45;;
12302;SDS011;6214;48.012;7.862;2022-08-19T10:29:26;18.48;;;16.60;;
12302;SDS011;6214;48.012;7.862;2022-08-19T10:31:59;18.80;;;17.05;;
12302;SDS011;6214;48.012;7.862;2022-08-19T10:34:37;18.00;;;16.42;;
12302;SDS011;6214;48.012;7.862;2022-08-19T10:37:14;18.60;;;17.00;;
12302;SDS011;6214;48.012;7.862;2022-08-19T10:39:56;18.67;;;16.97;;
12302;SDS011;6214;48.012;7.862;2022-08-19T10:42:24;18.25;;;16.67;;
12302;SDS011;6214;48.012;7.862;2022-08-19T10:44:51;18.80;;;17.02;;
12302;SDS011;6214;48.012;7.862;2022-08-19T10:47:18;19.00;;;17.10;;
12302;SDS011;6214;48.012;7.862;2022-08-19T10:49:51;18.45;;;16.75;;
12302;SDS011;6214;48.012;7.862;2022-08-19T10:52:39;19.30;;;17.50;;
12302;SDS011;6214;48.012;7.862;2022-08-19T10:55:17;18.98;;;17.27;;
12302;SDS011;6214;48.012;7.862;2022-08-19T10:58:09;17.50;;;15.90;;
12302;SDS011;6214;48.012;7.862;2022-08-19T11:00:38;19.00;;;17.30;;
12302;SDS011;6214;48.012;7.862;2022-08-19T11:03:06;18.65;;;17.05;;
12302;SDS011;6214;48.012;7.862;2022-08-19T11:05:35;18.58;;;16.98;;
12302;SDS011;6214;48.012;7.862;2022-08-19T11:08:06;18.33;;;16.63;;
12302;SDS011;6214;48.012;7.862;2022-08-19T11:10:52;18.13;;;16.42;;
12302;SDS011;6214;48.012;7.862;2022-08-19T11:13:30;18.13;;;16.52;;
12302;SDS011;6214;48.012;7.862;2022-08-19T11:16:01;17.92;;;16.30;;
12302;SDS011;6214;48.012;7.862;2022-08-19T11:18:37;17.77;;;16.27;;
12302;SDS011;6214;48.012;7.862;2022-08-19T11:21:10;19.15;;;17.35;;
12302;SDS011;6214;48.012;7.862;2022-08-19T11:23:38;17.40;;;15.80;;
12302;SDS011;6214;48.012;7.862;2022-08-19T11:26:05;17.48;;;15.77;;
12302;SDS011;6214;48.012;7.862;2022-08-19T11:28:33;18.52;;;16.92;;
12302;SDS011;6214;48.012;7.862;2022-08-19T11:30:59;17.23;;;15.73;;
12302;SDS011;6214;48.012;7.862;2022-08-19T11:33:27;16.70;;;15.10;;
12302;SDS011;6214;48.012;7.862;2022-08-19T11:35:54;17.75;;;16.15;;
12302;SDS011;6214;48.012;7.862;2022-08-19T11:38:25;18.45;;;16.55;;
12302;SDS011;6214;48.012;7.862;2022-08-19T11:40:59;17.40;;;15.80;;
12302;SDS011;6214;48.012;7.862;2022-08-19T11:43:29;19.35;;;17.58;;
12302;SDS011;6214;48.012;7.862;2022-08-19T11:46:06;20.52;;;18.38;;
12302;SDS011;6214;48.012;7.862;2022-08-19T11:48:36;19.87;;;18.07;;
12302;SDS011;6214;48.012;7.862;2022-08-19T11:51:05;20.40;;;18.40;;
12302;SDS011;6214;48.012;7.862;2022-08-19T11:53:35;20.70;;;18.67;;
12302;SDS011;6214;48.012;7.862;2022-08-19T11:56:03;21.40;;;19.40;;
12302;SDS011;6214;48.012;7.862;2022-08-19T11:58:32;20.13;;;18.33;;
12302;SDS011;6214;48.012;7.862;2022-08-19T12:01:00;19.27;;;17.48;;
12302;SDS011;6214;48.012;7.862;2022-08-19T12:03:27;20.40;;;18.50;;
12302;SDS011;6214;48.012;7.862;2022-08-19T12:05:54;17.67;;;16.03;;
12302;SDS011;6214;48.012;7.862;2022-08-19T12:08:21;19.33;;;17.52;;
12302;SDS011;6214;48.012;7.862;2022-08-19T12:10:48;17.85;;;16.25;;
12302;SDS011;6214;48.012;7.862;2022-08-19T12:13:15;18.85;;;17.15;;
12302;SDS011;6214;48.012;7.862;2022-08-19T12:15:45;17.17;;;15.48;;
12302;SDS011;6214;48.012;7.862;2022-08-19T12:18:13;16.50;;;15.00;;
12302;SDS011;6214;48.012;7.862;2022-08-19T12:20:41;16.60;;;15.10;;
12302;SDS011;6214;48.012;7.862;2022-08-19T12:23:09;15.95;;;14.45;;
12302;SDS011;6214;48.012;7.862;2022-08-19T12:25:37;16.05;;;14.65;;
12302;SDS011;6214;48.012;7.862;2022-08-19T12:28:14;15.15;;;13.75;;
12302;SDS011;6214;48.012;7.862;2022-08-19T12:30:42;14.52;;;13.13;;
12302;SDS011;6214;48.012;7.862;2022-08-19T12:33:09;13.63;;;12.40;;
12302;SDS011;6214;48.012;7.862;2022-08-19T12:35:39;15.20;;;13.80;;
12302;SDS011;6214;48.012;7.862;2022-08-19T12:38:11;14.88;;;13.57;;
12302;SDS011;6214;48.012;7.862;2022-08-19T12:40:39;15.65;;;14.25;;
12302;SDS011;6214;48.012;7.862;2022-08-19T12:43:06;14.60;;;13.20;;
12302;SDS011;6214;48.012;7.862;2022-08-19T12:45:34;14.47;;;13.10;;
12302;SDS011;6214;48.012;7.862;2022-08-19T12:48:03;13.13;;;11.93;;
12302;SDS011;6214;48.012;7.862;2022-08-19T12:50:50;14.23;;;12.80;;
12302;SDS011;6214;48.012;7.862;2022-08-19T12:53:17;13.13;;;11.93;;
12302;SDS011;6214;48.012;7.862;2022-08-19T12:55:44;14.50;;;13.10;;
12302;SDS011;6214;48.012;7.862;2022-08-19T12:58:11;13.57;;;12.30;;
12302;SDS011;6214;48.012;7.862;2022-08-19T13:00:39;13.50;;;12.30;;
12302;SDS011;6214;48.012;7.862;2022-08-19T13:03:06;13.52;;;12.32;;
12302;SDS011;6214;48.012;7.862;2022-08-19T13:05:33;14.30;;;13.00;;
12302;SDS011;6214;48.012;7.862;2022-08-19T13:08:00;14.20;;;12.90;;
12302;SDS011;6214;48.012;7.862;2022-08-19T13:10:32;14.02;;;12.82;;
12302;SDS011;6214;48.012;7.862;2022-08-19T13:13:05;13.87;;;12.60;;
12302;SDS011;6214;48.012;7.862;2022-08-19T13:15:35;14.07;;;12.75;;
12302;SDS011;6214;48.012;7.862;2022-08-19T13:18:03;14.18;;;12.88;;
12302;SDS011;6214;48.012;7.862;2022-08-19T13:20:30;13.97;;;12.77;;
12302;SDS011;6214;48.012;7.862;2022-08-19T13:22:57;12.88;;;11.68;;
12302;SDS011;6214;48.012;7.862;2022-08-19T13:25:24;13.77;;;12.57;;
12302;SDS011;6214;48.012;7.862;2022-08-19T13:27:51;14.50;;;13.20;;
12302;SDS011;6214;48.012;7.862;2022-08-19T13:30:19;14.80;;;13.40;;
12302;SDS011;6214;48.012;7.862;2022-08-19T13:33:05;13.10;;;11.90;;
12302;SDS011;6214;48.012;7.862;2022-08-19T13:35:46;12.80;;;11.60;;
12302;SDS011;6214;48.012;7.862;2022-08-19T13:38:17;13.93;;;12.63;;
12302;SDS011;6214;48.012;7.862;2022-08-19T13:40:46;13.45;;;12.25;;
12302;SDS011;6214;48.012;7.862;2022-08-19T13:43:15;12.50;;;11.30;;
12302;SDS011;6214;48.012;7.862;2022-08-19T13:45:49;12.60;;;11.40;;
12302;SDS011;6214;48.012;7.862;2022-08-19T13:48:22;12.70;;;11.40;;
12302;SDS011;6214;48.012;7.862;2022-08-19T13:50:51;12.50;;;11.40;;
12302;SDS011;6214;48.012;7.862;2022-08-19T13:53:18;11.55;;;10.35;;
12302;SDS011;6214;48.012;7.862;2022-08-19T13:55:45;11.75;;;10.65;;
12302;SDS011;6214;48.012;7.862;2022-08-19T13:58:13;11.63;;;10.52;;
12302;SDS011;6214;48.012;7.862;2022-08-19T14:00:42;11.23;;;10.13;;
12302;SDS011;6214;48.012;7.862;2022-08-19T14:03:10;11.13;;;10.07;;
12302;SDS011;6214;48.012;7.862;2022-08-19T14:05:38;10.20;;;9.10;;
12302;SDS011;6214;48.012;7.862;2022-08-19T14:08:05;10.13;;;9.13;;
12302;SDS011;6214;48.012;7.862;2022-08-19T14:10:32;9.63;;;8.80;;
12302;SDS011;6214;48.012;7.862;2022-08-19T14:13:01;9.60;;;8.70;;
12302;SDS011;6214;48.012;7.862;2022-08-19T14:15:29;8.75;;;7.85;;
12302;SDS011;6214;48.012;7.862;2022-08-19T14:17:57;10.20;;;9.20;;
12302;SDS011;6214;48.012;7.862;2022-08-19T14:20:25;9.50;;;8.60;;
12302;SDS011;6214;48.012;7.862;2022-08-19T14:22:53;9.33;;;8.40;;
12302;SDS011;6214;48.012;7.862;2022-08-19T14:25:22;9.80;;;8.90;;
12302;SDS011;6214;48.012;7.862;2022-08-19T14:27:51;9.50;;;8.60;;
12302;SDS011;6214;48.012;7.862;2022-08-19T14:30:29;9.90;;;9.00;;
12302;SDS011;6214;48.012;7.862;2022-08-19T14:32:59;9.57;;;8.68;;
12302;SDS011;6214;48.012;7.862;2022-08-19T14:35:28;9.23;;;8.43;;
12302;SDS011;6214;48.012;7.862;2022-08-19T14:37:56;9.80;;;8.90;;
12302;SDS011;6214;48.012;7.862;2022-08-19T14:40:26;9.60;;;8.63;;
12302;SDS011;6214;48.012;7.862;2022-08-19T14:42:55;9.50;;;8.60;;
12302;SDS011;6214;48.012;7.862;2022-08-19T14:45:26;10.63;;;8.90;;
12302;SDS011;6214;48.012;7.862;2022-08-19T14:47:54;10.17;;;9.17;;
12302;SDS011;6214;48.012;7.862;2022-08-19T14:50:21;9.82;;;8.90;;
12302;SDS011;6214;48.012;7.862;2022-08-19T14:52:49;10.30;;;9.40;;
12302;SDS011;6214;48.012;7.862;2022-08-19T14:55:18;10.32;;;9.32;;
12302;SDS011;6214;48.012;7.862;2022-08-19T14:57:45;10.48;;;9.48;;
12302;SDS011;6214;48.012;7.862;2022-08-19T15:00:12;9.40;;;8.50;;
12302;SDS011;6214;48.012;7.862;2022-08-19T15:02:40;9.88;;;8.70;;
12302;SDS011;6214;48.012;7.862;2022-08-19T15:05:08;9.60;;;8.70;;
12302;SDS011;6214;48.012;7.862;2022-08-19T15:07:35;9.80;;;8.80;;
12302;SDS011;6214;48.012;7.862;2022-08-19T15:10:03;10.15;;;9.05;;
12302;SDS011;6214;48.012;7.862;2022-08-19T15:12:36;9.20;;;8.32;;
12302;SDS011;6214;48.012;7.862;2022-08-19T15:15:07;10.52;;;9.52;;